Sweetwater, Nevada
Current Conditions -  °F | °C
As of 3:52 AM on Saturday 20 Dec 2014 (Local Time) from KBAN Reporting Station
Overcast Overcast  
Wind Chill: 38°   Ceiling: 3300
Heat Index: 38°   Visibility: NA
Dew Point: 26°   Wind: 3mph
Humidity: 62%   Direction: NA
Pressure: 30.06"   Gusts: NA
Location:  38.7596°N, 119.34°W
Report Text: KBAN 201152Z AUTO VRB03KT OVC033 03/M03 A3006 RMK AO2 SLP167 60000 70005 T00331033 10033 20011 58012 $
Loading
Personal Weather Stations






























Interactive Weather Map New forecast layout! Learn more

10-Day Weather Forecast

Advertisements
Track Severe Weather on mobile